sensor_id;sensor_type;location;lat;lon;timestamp;P1;durP1;ratioP1;P2;durP2;ratioP2
10092;SDS011;5085;48.092;11.484;2023-03-14T00:00:15;0.30;;;0.15;;
10092;SDS011;5085;48.092;11.484;2023-03-14T00:02:41;0.38;;;0.10;;
10092;SDS011;5085;48.092;11.484;2023-03-14T00:05:08;0.20;;;0.10;;
10092;SDS011;5085;48.092;11.484;2023-03-14T00:07:38;0.40;;;0.10;;
10092;SDS011;5085;48.092;11.484;2023-03-14T00:10:05;0.95;;;0.10;;
10092;SDS011;5085;48.092;11.484;2023-03-14T00:12:40;0.32;;;0.20;;
10092;SDS011;5085;48.092;11.484;2023-03-14T00:15:06;0.30;;;0.10;;
10092;SDS011;5085;48.092;11.484;2023-03-14T00:17:34;0.20;;;0.00;;
10092;SDS011;5085;48.092;11.484;2023-03-14T00:20:01;1.30;;;0.15;;
10092;SDS011;5085;48.092;11.484;2023-03-14T00:22:30;0.00;;;0.00;;
10092;SDS011;5085;48.092;11.484;2023-03-14T00:24:57;0.38;;;0.25;;
10092;SDS011;5085;48.092;11.484;2023-03-14T00:27:23;0.70;;;0.10;;
10092;SDS011;5085;48.092;11.484;2023-03-14T00:29:49;0.77;;;0.10;;
10092;SDS011;5085;48.092;11.484;2023-03-14T00:32:15;0.15;;;0.05;;
10092;SDS011;5085;48.092;11.484;2023-03-14T00:34:41;0.63;;;0.13;;
10092;SDS011;5085;48.092;11.484;2023-03-14T00:37:07;0.15;;;0.00;;
10092;SDS011;5085;48.092;11.484;2023-03-14T00:39:33;1.02;;;0.00;;
10092;SDS011;5085;48.092;11.484;2023-03-14T00:41:59;0.35;;;0.17;;
10092;SDS011;5085;48.092;11.484;2023-03-14T00:44:25;0.03;;;0.03;;
10092;SDS011;5085;48.092;11.484;2023-03-14T00:46:51;0.10;;;0.10;;
10092;SDS011;5085;48.092;11.484;2023-03-14T00:49:18;1.00;;;0.10;;
10092;SDS011;5085;48.092;11.484;2023-03-14T00:51:44;0.47;;;0.30;;
10092;SDS011;5085;48.092;11.484;2023-03-14T00:54:10;0.52;;;0.32;;
10092;SDS011;5085;48.092;11.484;2023-03-14T00:56:36;1.23;;;0.10;;
10092;SDS011;5085;48.092;11.484;2023-03-14T00:59:02;0.20;;;0.05;;
10092;SDS011;5085;48.092;11.484;2023-03-14T01:01:38;0.13;;;0.10;;
10092;SDS011;5085;48.092;11.484;2023-03-14T01:04:05;0.60;;;0.20;;
10092;SDS011;5085;48.092;11.484;2023-03-14T01:06:34;0.35;;;0.10;;
10092;SDS011;5085;48.092;11.484;2023-03-14T01:09:00;0.10;;;0.10;;
10092;SDS011;5085;48.092;11.484;2023-03-14T01:11:31;0.90;;;0.10;;
10092;SDS011;5085;48.092;11.484;2023-03-14T01:13:58;0.15;;;0.13;;
10092;SDS011;5085;48.092;11.484;2023-03-14T01:16:28;3.92;;;0.20;;
10092;SDS011;5085;48.092;11.484;2023-03-14T01:19:00;0.10;;;0.00;;
10092;SDS011;5085;48.092;11.484;2023-03-14T01:21:28;1.05;;;0.10;;
10092;SDS011;5085;48.092;11.484;2023-03-14T01:23:57;0.15;;;0.10;;
10092;SDS011;5085;48.092;11.484;2023-03-14T01:26:25;0.47;;;0.20;;
10092;SDS011;5085;48.092;11.484;2023-03-14T01:28:54;0.57;;;0.10;;
10092;SDS011;5085;48.092;11.484;2023-03-14T01:31:21;1.75;;;0.10;;
10092;SDS011;5085;48.092;11.484;2023-03-14T01:33:47;0.47;;;0.15;;
10092;SDS011;5085;48.092;11.484;2023-03-14T01:36:17;1.08;;;0.10;;
10092;SDS011;5085;48.092;11.484;2023-03-14T01:38:43;0.22;;;0.10;;
10092;SDS011;5085;48.092;11.484;2023-03-14T01:41:13;0.45;;;0.20;;
10092;SDS011;5085;48.092;11.484;2023-03-14T01:43:45;1.00;;;0.20;;
10092;SDS011;5085;48.092;11.484;2023-03-14T01:46:17;0.10;;;0.10;;
10092;SDS011;5085;48.092;11.484;2023-03-14T01:48:58;0.30;;;0.10;;
10092;SDS011;5085;48.092;11.484;2023-03-14T01:51:45;0.22;;;0.10;;
10092;SDS011;5085;48.092;11.484;2023-03-14T01:54:25;0.43;;;0.20;;
10092;SDS011;5085;48.092;11.484;2023-03-14T01:59:37;3.38;;;0.20;;
10092;SDS011;5085;48.092;11.484;2023-03-14T02:02:06;1.45;;;0.30;;
10092;SDS011;5085;48.092;11.484;2023-03-14T02:04:35;0.52;;;0.20;;
10092;SDS011;5085;48.092;11.484;2023-03-14T02:07:12;0.60;;;0.20;;
10092;SDS011;5085;48.092;11.484;2023-03-14T02:09:52;0.10;;;0.10;;
10092;SDS011;5085;48.092;11.484;2023-03-14T02:12:23;0.57;;;0.13;;
10092;SDS011;5085;48.092;11.484;2023-03-14T02:15:07;1.08;;;0.08;;
10092;SDS011;5085;48.092;11.484;2023-03-14T02:18:03;0.17;;;0.13;;
10092;SDS011;5085;48.092;11.484;2023-03-14T02:20:57;0.20;;;0.10;;
10092;SDS011;5085;48.092;11.484;2023-03-14T02:26:39;0.15;;;0.10;;
10092;SDS011;5085;48.092;11.484;2023-03-14T02:28:45;0.10;;;0.10;;
10092;SDS011;5085;48.092;11.484;2023-03-14T02:31:11;0.60;;;0.20;;
10092;SDS011;5085;48.092;11.484;2023-03-14T02:33:37;0.20;;;0.10;;
10092;SDS011;5085;48.092;11.484;2023-03-14T02:36:05;0.10;;;0.10;;
10092;SDS011;5085;48.092;11.484;2023-03-14T02:38:36;0.22;;;0.10;;
10092;SDS011;5085;48.092;11.484;2023-03-14T02:41:07;0.08;;;0.08;;
10092;SDS011;5085;48.092;11.484;2023-03-14T02:43:38;0.10;;;0.10;;
10092;SDS011;5085;48.092;11.484;2023-03-14T02:46:10;0.10;;;0.05;;
10092;SDS011;5085;48.092;11.484;2023-03-14T02:48:55;0.28;;;0.10;;
10092;SDS011;5085;48.092;11.484;2023-03-14T02:51:27;0.55;;;0.20;;
10092;SDS011;5085;48.092;11.484;2023-03-14T02:53:54;0.20;;;0.10;;
10092;SDS011;5085;48.092;11.484;2023-03-14T02:56:22;0.20;;;0.10;;
10092;SDS011;5085;48.092;11.484;2023-03-14T02:58:52;0.25;;;0.10;;
10092;SDS011;5085;48.092;11.484;2023-03-14T03:01:34;0.10;;;0.10;;
10092;SDS011;5085;48.092;11.484;2023-03-14T03:04:03;2.17;;;0.30;;
10092;SDS011;5085;48.092;11.484;2023-03-14T03:06:30;0.20;;;0.10;;
10092;SDS011;5085;48.092;11.484;2023-03-14T03:08:56;0.77;;;0.10;;
10092;SDS011;5085;48.092;11.484;2023-03-14T03:11:22;0.15;;;0.10;;
10092;SDS011;5085;48.092;11.484;2023-03-14T03:13:48;0.35;;;0.10;;
10092;SDS011;5085;48.092;11.484;2023-03-14T03:16:14;0.22;;;0.17;;
10092;SDS011;5085;48.092;11.484;2023-03-14T03:18:40;0.75;;;0.10;;
10092;SDS011;5085;48.092;11.484;2023-03-14T03:21:07;0.00;;;0.00;;
10092;SDS011;5085;48.092;11.484;2023-03-14T03:23:35;0.00;;;0.00;;
10092;SDS011;5085;48.092;11.484;2023-03-14T03:26:01;1.02;;;0.03;;
10092;SDS011;5085;48.092;11.484;2023-03-14T03:28:28;0.30;;;0.10;;
10092;SDS011;5085;48.092;11.484;2023-03-14T03:30:55;0.10;;;0.00;;
10092;SDS011;5085;48.092;11.484;2023-03-14T03:33:21;0.10;;;0.10;;
10092;SDS011;5085;48.092;11.484;2023-03-14T03:35:50;0.40;;;0.10;;
10092;SDS011;5085;48.092;11.484;2023-03-14T03:38:25;0.20;;;0.00;;
10092;SDS011;5085;48.092;11.484;2023-03-14T03:40:53;0.00;;;0.00;;
10092;SDS011;5085;48.092;11.484;2023-03-14T03:43:22;0.00;;;0.00;;
10092;SDS011;5085;48.092;11.484;2023-03-14T03:45:49;0.00;;;0.00;;
10092;SDS011;5085;48.092;11.484;2023-03-14T03:48:15;0.00;;;0.00;;
10092;SDS011;5085;48.092;11.484;2023-03-14T03:50:45;0.95;;;0.30;;
10092;SDS011;5085;48.092;11.484;2023-03-14T03:53:12;2.00;;;0.00;;
10092;SDS011;5085;48.092;11.484;2023-03-14T03:55:42;0.10;;;0.00;;
10092;SDS011;5085;48.092;11.484;2023-03-14T03:58:09;0.90;;;0.10;;
10092;SDS011;5085;48.092;11.484;2023-03-14T04:00:35;0.00;;;0.00;;
10092;SDS011;5085;48.092;11.484;2023-03-14T04:03:01;0.00;;;0.00;;
10092;SDS011;5085;48.092;11.484;2023-03-14T04:05:27;0.00;;;0.00;;
10092;SDS011;5085;48.092;11.484;2023-03-14T04:08:10;0.00;;;0.00;;
10092;SDS011;5085;48.092;11.484;2023-03-14T04:10:39;0.20;;;0.10;;
10092;SDS011;5085;48.092;11.484;2023-03-14T04:13:15;0.10;;;0.00;;
10092;SDS011;5085;48.092;11.484;2023-03-14T04:15:46;0.00;;;0.00;;
10092;SDS011;5085;48.092;11.484;2023-03-14T04:18:18;0.40;;;0.10;;
10092;SDS011;5085;48.092;11.484;2023-03-14T04:20:44;0.00;;;0.00;;
10092;SDS011;5085;48.092;11.484;2023-03-14T04:23:11;0.00;;;0.00;;
10092;SDS011;5085;48.092;11.484;2023-03-14T04:25:38;0.00;;;0.00;;
10092;SDS011;5085;48.092;11.484;2023-03-14T04:28:04;0.20;;;0.10;;
10092;SDS011;5085;48.092;11.484;2023-03-14T04:30:31;0.00;;;0.00;;
10092;SDS011;5085;48.092;11.484;2023-03-14T04:33:02;0.00;;;0.00;;
10092;SDS011;5085;48.092;11.484;2023-03-14T04:35:30;0.00;;;0.00;;
10092;SDS011;5085;48.092;11.484;2023-03-14T04:38:00;0.25;;;0.10;;
10092;SDS011;5085;48.092;11.484;2023-03-14T04:40:27;0.00;;;0.00;;
10092;SDS011;5085;48.092;11.484;2023-03-14T04:45:24;0.08;;;0.00;;
10092;SDS011;5085;48.092;11.484;2023-03-14T04:47:50;0.30;;;0.20;;
10092;SDS011;5085;48.092;11.484;2023-03-14T04:50:18;0.00;;;0.00;;
10092;SDS011;5085;48.092;11.484;2023-03-14T04:52:45;0.05;;;0.00;;
10092;SDS011;5085;48.092;11.484;2023-03-14T04:55:12;0.20;;;0.10;;
10092;SDS011;5085;48.092;11.484;2023-03-14T04:57:39;0.15;;;0.10;;
10092;SDS011;5085;48.092;11.484;2023-03-14T05:00:08;0.00;;;0.00;;
10092;SDS011;5085;48.092;11.484;2023-03-14T05:03:02;0.10;;;0.03;;
10092;SDS011;5085;48.092;11.484;2023-03-14T05:05:43;0.00;;;0.00;;
10092;SDS011;5085;48.092;11.484;2023-03-14T05:08:40;0.00;;;0.00;;
10092;SDS011;5085;48.092;11.484;2023-03-14T05:11:24;0.00;;;0.00;;
10092;SDS011;5085;48.092;11.484;2023-03-14T05:14:16;0.00;;;0.00;;
10092;SDS011;5085;48.092;11.484;2023-03-14T05:16:42;0.10;;;0.03;;
10092;SDS011;5085;48.092;11.484;2023-03-14T05:19:37;0.55;;;0.10;;
10092;SDS011;5085;48.092;11.484;2023-03-14T05:22:36;0.00;;;0.00;;
10092;SDS011;5085;48.092;11.484;2023-03-14T05:25:31;0.13;;;0.00;;
10092;SDS011;5085;48.092;11.484;2023-03-14T05:28:10;0.10;;;0.10;;
10092;SDS011;5085;48.092;11.484;2023-03-14T05:30:47;0.20;;;0.10;;
10092;SDS011;5085;48.092;11.484;2023-03-14T05:33:36;0.00;;;0.00;;
10092;SDS011;5085;48.092;11.484;2023-03-14T05:36:12;3.30;;;0.10;;
10092;SDS011;5085;48.092;11.484;2023-03-14T05:38:55;0.25;;;0.10;;
10092;SDS011;5085;48.092;11.484;2023-03-14T05:41:26;0.00;;;0.00;;
10092;SDS011;5085;48.092;11.484;2023-03-14T05:44:11;0.10;;;0.00;;
10092;SDS011;5085;48.092;11.484;2023-03-14T05:46:57;0.00;;;0.00;;
10092;SDS011;5085;48.092;11.484;2023-03-14T05:49:33;0.28;;;0.10;;
10092;SDS011;5085;48.092;11.484;2023-03-14T05:54:55;0.08;;;0.00;;
10092;SDS011;5085;48.092;11.484;2023-03-14T05:57:51;0.05;;;0.00;;
10092;SDS011;5085;48.092;11.484;2023-03-14T06:00:41;0.13;;;0.10;;
10092;SDS011;5085;48.092;11.484;2023-03-14T06:03:20;0.00;;;0.00;;
10092;SDS011;5085;48.092;11.484;2023-03-14T06:05:49;0.28;;;0.13;;
10092;SDS011;5085;48.092;11.484;2023-03-14T06:08:17;0.65;;;0.20;;
10092;SDS011;5085;48.092;11.484;2023-03-14T06:10:43;0.20;;;0.10;;
10092;SDS011;5085;48.092;11.484;2023-03-14T06:13:09;0.22;;;0.08;;
10092;SDS011;5085;48.092;11.484;2023-03-14T06:15:35;0.15;;;0.10;;
10092;SDS011;5085;48.092;11.484;2023-03-14T06:18:01;0.13;;;0.13;;
10092;SDS011;5085;48.092;11.484;2023-03-14T06:20:31;0.10;;;0.00;;
10092;SDS011;5085;48.092;11.484;2023-03-14T06:22:59;0.10;;;0.10;;
10092;SDS011;5085;48.092;11.484;2023-03-14T06:25:25;0.47;;;0.13;;
10092;SDS011;5085;48.092;11.484;2023-03-14T06:27:51;0.20;;;0.10;;
10092;SDS011;5085;48.092;11.484;2023-03-14T06:30:18;0.08;;;0.08;;
10092;SDS011;5085;48.092;11.484;2023-03-14T06:32:44;0.32;;;0.10;;
10092;SDS011;5085;48.092;11.484;2023-03-14T06:35:14;1.77;;;0.10;;
10092;SDS011;5085;48.092;11.484;2023-03-14T06:37:42;0.10;;;0.05;;
10092;SDS011;5085;48.092;11.484;2023-03-14T06:40:10;0.40;;;0.13;;
10092;SDS011;5085;48.092;11.484;2023-03-14T06:42:53;0.15;;;0.10;;
10092;SDS011;5085;48.092;11.484;2023-03-14T06:45:21;0.00;;;0.00;;
10092;SDS011;5085;48.092;11.484;2023-03-14T06:47:47;0.00;;;0.00;;
10092;SDS011;5085;48.092;11.484;2023-03-14T06:50:14;0.30;;;0.10;;
10092;SDS011;5085;48.092;11.484;2023-03-14T06:52:41;0.38;;;0.10;;
10092;SDS011;5085;48.092;11.484;2023-03-14T06:55:15;0.30;;;0.10;;
10092;SDS011;5085;48.092;11.484;2023-03-14T06:57:41;1.35;;;0.10;;
10092;SDS011;5085;48.092;11.484;2023-03-14T07:00:09;0.30;;;0.10;;
10092;SDS011;5085;48.092;11.484;2023-03-14T07:02:38;2.10;;;0.13;;
10092;SDS011;5085;48.092;11.484;2023-03-14T07:05:05;0.15;;;0.00;;
10092;SDS011;5085;48.092;11.484;2023-03-14T07:07:38;0.13;;;0.00;;
10092;SDS011;5085;48.092;11.484;2023-03-14T07:10:04;0.63;;;0.10;;
10092;SDS011;5085;48.092;11.484;2023-03-14T07:12:34;0.50;;;0.10;;
10092;SDS011;5085;48.092;11.484;2023-03-14T07:15:00;0.03;;;0.03;;
10092;SDS011;5085;48.092;11.484;2023-03-14T07:17:29;0.00;;;0.00;;
10092;SDS011;5085;48.092;11.484;2023-03-14T07:19:56;3.20;;;0.20;;
10092;SDS011;5085;48.092;11.484;2023-03-14T07:22:22;0.80;;;0.15;;
10092;SDS011;5085;48.092;11.484;2023-03-14T07:24:48;0.43;;;0.15;;
10092;SDS011;5085;48.092;11.484;2023-03-14T07:27:17;0.20;;;0.10;;
10092;SDS011;5085;48.092;11.484;2023-03-14T07:29:43;0.75;;;0.10;;
10092;SDS011;5085;48.092;11.484;2023-03-14T07:32:09;0.17;;;0.10;;
10092;SDS011;5085;48.092;11.484;2023-03-14T07:34:40;1.33;;;0.10;;
10092;SDS011;5085;48.092;11.484;2023-03-14T07:37:07;0.10;;;0.10;;
10092;SDS011;5085;48.092;11.484;2023-03-14T07:39:33;0.25;;;0.10;;
10092;SDS011;5085;48.092;11.484;2023-03-14T07:42:04;0.10;;;0.05;;
10092;SDS011;5085;48.092;11.484;2023-03-14T07:44:55;0.30;;;0.10;;
10092;SDS011;5085;48.092;11.484;2023-03-14T07:47:21;0.55;;;0.10;;
10092;SDS011;5085;48.092;11.484;2023-03-14T07:49:47;0.30;;;0.10;;
10092;SDS011;5085;48.092;11.484;2023-03-14T07:52:13;0.38;;;0.10;;
10092;SDS011;5085;48.092;11.484;2023-03-14T07:54:39;0.52;;;0.20;;
10092;SDS011;5085;48.092;11.484;2023-03-14T07:57:05;0.10;;;0.03;;
10092;SDS011;5085;48.092;11.484;2023-03-14T07:59:31;0.20;;;0.10;;
10092;SDS011;5085;48.092;11.484;2023-03-14T08:01:57;0.20;;;0.10;;
10092;SDS011;5085;48.092;11.484;2023-03-14T08:04:23;0.25;;;0.10;;
10092;SDS011;5085;48.092;11.484;2023-03-14T08:06:49;0.10;;;0.10;;
10092;SDS011;5085;48.092;11.484;2023-03-14T08:09:15;0.47;;;0.10;;
10092;SDS011;5085;48.092;11.484;2023-03-14T08:11:41;0.20;;;0.10;;
10092;SDS011;5085;48.092;11.484;2023-03-14T08:14:07;0.17;;;0.10;;
10092;SDS011;5085;48.092;11.484;2023-03-14T08:16:33;0.15;;;0.10;;
10092;SDS011;5085;48.092;11.484;2023-03-14T08:18:59;0.40;;;0.13;;
10092;SDS011;5085;48.092;11.484;2023-03-14T08:21:25;0.30;;;0.10;;
10092;SDS011;5085;48.092;11.484;2023-03-14T08:23:51;0.30;;;0.00;;
10092;SDS011;5085;48.092;11.484;2023-03-14T08:26:23;0.13;;;0.10;;
10092;SDS011;5085;48.092;11.484;2023-03-14T08:28:49;0.57;;;0.13;;
10092;SDS011;5085;48.092;11.484;2023-03-14T08:31:15;0.40;;;0.20;;
10092;SDS011;5085;48.092;11.484;2023-03-14T08:33:41;0.05;;;0.03;;
10092;SDS011;5085;48.092;11.484;2023-03-14T08:36:08;2.00;;;0.10;;
10092;SDS011;5085;48.092;11.484;2023-03-14T08:38:34;0.28;;;0.10;;
10092;SDS011;5085;48.092;11.484;2023-03-14T08:41:03;0.00;;;0.00;;
10092;SDS011;5085;48.092;11.484;2023-03-14T08:43:30;0.90;;;0.20;;
10092;SDS011;5085;48.092;11.484;2023-03-14T08:46:00;0.50;;;0.10;;
10092;SDS011;5085;48.092;11.484;2023-03-14T08:48:27;0.17;;;0.10;;
10092;SDS011;5085;48.092;11.484;2023-03-14T08:51:07;0.75;;;0.20;;
10092;SDS011;5085;48.092;11.484;2023-03-14T08:53:35;0.63;;;0.10;;
10092;SDS011;5085;48.092;11.484;2023-03-14T08:56:01;0.20;;;0.10;;
10092;SDS011;5085;48.092;11.484;2023-03-14T08:58:27;0.20;;;0.10;;
10092;SDS011;5085;48.092;11.484;2023-03-14T09:00:53;0.22;;;0.10;;
10092;SDS011;5085;48.092;11.484;2023-03-14T09:03:19;0.05;;;0.00;;
10092;SDS011;5085;48.092;11.484;2023-03-14T09:05:45;0.73;;;0.20;;
10092;SDS011;5085;48.092;11.484;2023-03-14T09:08:11;0.65;;;0.10;;
10092;SDS011;5085;48.092;11.484;2023-03-14T09:10:37;0.30;;;0.10;;
10092;SDS011;5085;48.092;11.484;2023-03-14T09:13:04;0.63;;;0.10;;
10092;SDS011;5085;48.092;11.484;2023-03-14T09:15:30;1.27;;;0.20;;
10092;SDS011;5085;48.092;11.484;2023-03-14T09:17:56;0.47;;;0.10;;
10092;SDS011;5085;48.092;11.484;2023-03-14T09:20:22;1.35;;;0.25;;
10092;SDS011;5085;48.092;11.484;2023-03-14T09:22:48;0.45;;;0.17;;
10092;SDS011;5085;48.092;11.484;2023-03-14T09:25:14;3.42;;;0.10;;
10092;SDS011;5085;48.092;11.484;2023-03-14T09:27:40;0.70;;;0.30;;
10092;SDS011;5085;48.092;11.484;2023-03-14T09:30:06;3.35;;;0.10;;
10092;SDS011;5085;48.092;11.484;2023-03-14T09:32:33;1.10;;;0.20;;
10092;SDS011;5085;48.092;11.484;2023-03-14T09:35:08;0.47;;;0.10;;
10092;SDS011;5085;48.092;11.484;2023-03-14T09:37:35;0.65;;;0.20;;
10092;SDS011;5085;48.092;11.484;2023-03-14T09:40:01;1.40;;;0.15;;
10092;SDS011;5085;48.092;11.484;2023-03-14T09:42:33;1.05;;;0.20;;
10092;SDS011;5085;48.092;11.484;2023-03-14T09:45:04;0.75;;;0.20;;
10092;SDS011;5085;48.092;11.484;2023-03-14T09:47:34;0.50;;;0.28;;
10092;SDS011;5085;48.092;11.484;2023-03-14T09:50:04;0.52;;;0.08;;
10092;SDS011;5085;48.092;11.484;2023-03-14T09:52:40;0.63;;;0.20;;
10092;SDS011;5085;48.092;11.484;2023-03-14T09:55:13;0.40;;;0.20;;
10092;SDS011;5085;48.092;11.484;2023-03-14T09:57:44;0.30;;;0.20;;
10092;SDS011;5085;48.092;11.484;2023-03-14T10:02:52;1.13;;;0.20;;
10092;SDS011;5085;48.092;11.484;2023-03-14T10:05:21;0.32;;;0.10;;
10092;SDS011;5085;48.092;11.484;2023-03-14T10:07:51;1.30;;;0.30;;
10092;SDS011;5085;48.092;11.484;2023-03-14T10:10:21;1.27;;;0.20;;
10092;SDS011;5085;48.092;11.484;2023-03-14T10:13:05;0.30;;;0.10;;
10092;SDS011;5085;48.092;11.484;2023-03-14T10:15:43;2.25;;;0.10;;
10092;SDS011;5085;48.092;11.484;2023-03-14T10:18:19;0.80;;;0.30;;
10092;SDS011;5085;48.092;11.484;2023-03-14T10:20:47;0.22;;;0.15;;
10092;SDS011;5085;48.092;11.484;2023-03-14T10:25:42;0.40;;;0.20;;
10092;SDS011;5085;48.092;11.484;2023-03-14T10:28:26;0.20;;;0.10;;
10092;SDS011;5085;48.092;11.484;2023-03-14T10:30:54;0.38;;;0.10;;
10092;SDS011;5085;48.092;11.484;2023-03-14T10:33:31;0.20;;;0.10;;
10092;SDS011;5085;48.092;11.484;2023-03-14T10:38:57;1.15;;;0.13;;
10092;SDS011;5085;48.092;11.484;2023-03-14T10:41:41;1.65;;;0.13;;
10092;SDS011;5085;48.092;11.484;2023-03-14T10:44:13;0.50;;;0.10;;
10092;SDS011;5085;48.092;11.484;2023-03-14T10:46:46;0.40;;;0.10;;
10092;SDS011;5085;48.092;11.484;2023-03-14T10:49:26;0.10;;;0.00;;
10092;SDS011;5085;48.092;11.484;2023-03-14T10:54:57;0.55;;;0.20;;
10092;SDS011;5085;48.092;11.484;2023-03-14T10:57:24;0.63;;;0.20;;
10092;SDS011;5085;48.092;11.484;2023-03-14T10:59:51;0.40;;;0.10;;
10092;SDS011;5085;48.092;11.484;2023-03-14T11:02:38;1.23;;;0.20;;
10092;SDS011;5085;48.092;11.484;2023-03-14T11:10:24;0.32;;;0.10;;
10092;SDS011;5085;48.092;11.484;2023-03-14T11:27:22;0.88;;;0.10;;
10092;SDS011;5085;48.092;11.484;2023-03-14T11:38:40;0.22;;;0.10;;
10092;SDS011;5085;48.092;11.484;2023-03-14T11:41:27;0.10;;;0.10;;
10092;SDS011;5085;48.092;11.484;2023-03-14T11:43:59;0.98;;;0.10;;
10092;SDS011;5085;48.092;11.484;2023-03-14T11:46:47;0.17;;;0.10;;
10092;SDS011;5085;48.092;11.484;2023-03-14T11:51:43;0.73;;;0.10;;
10092;SDS011;5085;48.092;11.484;2023-03-14T11:54:15;0.17;;;0.10;;
10092;SDS011;5085;48.092;11.484;2023-03-14T11:59:23;0.10;;;0.00;;
10092;SDS011;5085;48.092;11.484;2023-03-14T12:01:59;0.10;;;0.10;;
10092;SDS011;5085;48.092;11.484;2023-03-14T12:04:34;0.35;;;0.10;;
10092;SDS011;5085;48.092;11.484;2023-03-14T12:07:26;0.08;;;0.08;;
10092;SDS011;5085;48.092;11.484;2023-03-14T12:10:01;0.20;;;0.00;;
10092;SDS011;5085;48.092;11.484;2023-03-14T12:12:28;0.60;;;0.10;;
10092;SDS011;5085;48.092;11.484;2023-03-14T12:15:00;0.38;;;0.08;;
10092;SDS011;5085;48.092;11.484;2023-03-14T12:17:35;0.82;;;0.10;;
10092;SDS011;5085;48.092;11.484;2023-03-14T12:20:17;0.32;;;0.10;;
10092;SDS011;5085;48.092;11.484;2023-03-14T12:22:46;0.47;;;0.10;;
10092;SDS011;5085;48.092;11.484;2023-03-14T12:25:17;0.55;;;0.10;;
10092;SDS011;5085;48.092;11.484;2023-03-14T12:30:28;0.10;;;0.00;;
10092;SDS011;5085;48.092;11.484;2023-03-14T12:35:38;0.57;;;0.20;;
10092;SDS011;5085;48.092;11.484;2023-03-14T12:38:09;0.00;;;0.00;;
10092;SDS011;5085;48.092;11.484;2023-03-14T12:43:33;0.43;;;0.10;;
10092;SDS011;5085;48.092;11.484;2023-03-14T12:46:15;0.10;;;0.10;;
10092;SDS011;5085;48.092;11.484;2023-03-14T12:48:48;0.10;;;0.10;;
10092;SDS011;5085;48.092;11.484;2023-03-14T12:51:29;0.57;;;0.15;;
10092;SDS011;5085;48.092;11.484;2023-03-14T12:59:50;0.00;;;0.00;;
10092;SDS011;5085;48.092;11.484;2023-03-14T13:02:38;0.00;;;0.00;;
10092;SDS011;5085;48.092;11.484;2023-03-14T13:05:21;0.90;;;0.05;;
10092;SDS011;5085;48.092;11.484;2023-03-14T13:10:18;0.20;;;0.10;;
10092;SDS011;5085;48.092;11.484;2023-03-14T13:15:19;1.35;;;0.00;;
10092;SDS011;5085;48.092;11.484;2023-03-14T13:18:14;0.05;;;0.00;;
10092;SDS011;5085;48.092;11.484;2023-03-14T13:20:50;0.43;;;0.10;;
10092;SDS011;5085;48.092;11.484;2023-03-14T13:23:20;0.22;;;0.20;;
10092;SDS011;5085;48.092;11.484;2023-03-14T13:25:46;0.35;;;0.00;;
10092;SDS011;5085;48.092;11.484;2023-03-14T13:28:13;0.00;;;0.00;;
10092;SDS011;5085;48.092;11.484;2023-03-14T13:30:41;0.00;;;0.00;;
10092;SDS011;5085;48.092;11.484;2023-03-14T13:33:15;0.38;;;0.10;;
10092;SDS011;5085;48.092;11.484;2023-03-14T13:35:55;0.17;;;0.03;;
10092;SDS011;5085;48.092;11.484;2023-03-14T13:38:26;0.00;;;0.00;;
10092;SDS011;5085;48.092;11.484;2023-03-14T13:40:54;0.00;;;0.00;;
10092;SDS011;5085;48.092;11.484;2023-03-14T13:48:46;0.30;;;0.00;;
10092;SDS011;5085;48.092;11.484;2023-03-14T13:51:16;0.03;;;0.00;;
10092;SDS011;5085;48.092;11.484;2023-03-14T13:53:47;0.10;;;0.10;;
10092;SDS011;5085;48.092;11.484;2023-03-14T13:56:15;0.10;;;0.05;;
10092;SDS011;5085;48.092;11.484;2023-03-14T13:58:43;0.00;;;0.00;;
10092;SDS011;5085;48.092;11.484;2023-03-14T14:01:16;0.38;;;0.10;;
10092;SDS011;5085;48.092;11.484;2023-03-14T14:03:48;0.00;;;0.00;;
10092;SDS011;5085;48.092;11.484;2023-03-14T14:09:15;0.00;;;0.00;;
10092;SDS011;5085;48.092;11.484;2023-03-14T14:16:57;0.10;;;0.10;;
10092;SDS011;5085;48.092;11.484;2023-03-14T14:19:26;0.10;;;0.10;;
10092;SDS011;5085;48.092;11.484;2023-03-14T14:21:55;0.40;;;0.10;;
10092;SDS011;5085;48.092;11.484;2023-03-14T14:24:23;0.00;;;0.00;;
10092;SDS011;5085;48.092;11.484;2023-03-14T14:26:54;0.32;;;0.00;;
10092;SDS011;5085;48.092;11.484;2023-03-14T14:29:32;1.35;;;0.10;;
10092;SDS011;5085;48.092;11.484;2023-03-14T14:34:44;0.00;;;0.00;;
10092;SDS011;5085;48.092;11.484;2023-03-14T14:37:26;0.20;;;0.10;;
10092;SDS011;5085;48.092;11.484;2023-03-14T14:40:13;0.10;;;0.00;;
10092;SDS011;5085;48.092;11.484;2023-03-14T14:42:44;0.03;;;0.03;;
10092;SDS011;5085;48.092;11.484;2023-03-14T14:45:16;0.00;;;0.00;;
10092;SDS011;5085;48.092;11.484;2023-03-14T14:53:42;0.10;;;0.10;;
10092;SDS011;5085;48.092;11.484;2023-03-14T14:56:16;0.10;;;0.03;;
10092;SDS011;5085;48.092;11.484;2023-03-14T14:58:46;1.13;;;0.03;;
10092;SDS011;5085;48.092;11.484;2023-03-14T15:01:22;2.45;;;0.10;;
10092;SDS011;5085;48.092;11.484;2023-03-14T15:03:53;0.17;;;0.10;;
10092;SDS011;5085;48.092;11.484;2023-03-14T15:06:20;0.00;;;0.00;;
10092;SDS011;5085;48.092;11.484;2023-03-14T15:08:47;0.00;;;0.00;;
10092;SDS011;5085;48.092;11.484;2023-03-14T15:11:18;0.63;;;0.00;;
10092;SDS011;5085;48.092;11.484;2023-03-14T15:13:46;0.10;;;0.00;;
10092;SDS011;5085;48.092;11.484;2023-03-14T15:16:12;0.00;;;0.00;;
10092;SDS011;5085;48.092;11.484;2023-03-14T15:18:49;0.15;;;0.10;;
10092;SDS011;5085;48.092;11.484;2023-03-14T15:21:21;0.03;;;0.03;;
10092;SDS011;5085;48.092;11.484;2023-03-14T15:23:48;1.27;;;0.10;;
10092;SDS011;5085;48.092;11.484;2023-03-14T15:26:15;0.10;;;0.10;;
10092;SDS011;5085;48.092;11.484;2023-03-14T15:28:49;0.13;;;0.13;;
10092;SDS011;5085;48.092;11.484;2023-03-14T15:31:15;0.75;;;0.35;;
10092;SDS011;5085;48.092;11.484;2023-03-14T15:33:43;1.83;;;0.80;;
10092;SDS011;5085;48.092;11.484;2023-03-14T15:36:15;5.20;;;2.28;;
10092;SDS011;5085;48.092;11.484;2023-03-14T15:38:45;9.35;;;3.65;;
10092;SDS011;5085;48.092;11.484;2023-03-14T15:41:11;4.25;;;1.35;;
10092;SDS011;5085;48.092;11.484;2023-03-14T15:43:37;3.38;;;0.52;;
10092;SDS011;5085;48.092;11.484;2023-03-14T15:46:03;0.82;;;0.40;;
10092;SDS011;5085;48.092;11.484;2023-03-14T15:48:31;0.60;;;0.22;;
10092;SDS011;5085;48.092;11.484;2023-03-14T15:50:58;0.80;;;0.35;;
10092;SDS011;5085;48.092;11.484;2023-03-14T15:53:24;0.95;;;0.30;;
10092;SDS011;5085;48.092;11.484;2023-03-14T15:55:50;1.02;;;0.43;;
10092;SDS011;5085;48.092;11.484;2023-03-14T15:58:17;2.72;;;0.57;;
10092;SDS011;5085;48.092;11.484;2023-03-14T16:00:44;0.30;;;0.10;;
10092;SDS011;5085;48.092;11.484;2023-03-14T16:03:11;0.30;;;0.10;;
10092;SDS011;5085;48.092;11.484;2023-03-14T16:05:38;0.17;;;0.15;;
10092;SDS011;5085;48.092;11.484;2023-03-14T16:08:05;0.32;;;0.20;;
10092;SDS011;5085;48.092;11.484;2023-03-14T16:10:31;0.55;;;0.30;;
10092;SDS011;5085;48.092;11.484;2023-03-14T16:12:58;2.25;;;0.45;;
10092;SDS011;5085;48.092;11.484;2023-03-14T16:15:25;0.70;;;0.30;;
10092;SDS011;5085;48.092;11.484;2023-03-14T16:18:01;0.45;;;0.35;;
10092;SDS011;5085;48.092;11.484;2023-03-14T16:20:27;0.52;;;0.28;;
10092;SDS011;5085;48.092;11.484;2023-03-14T16:22:59;0.60;;;0.30;;
10092;SDS011;5085;48.092;11.484;2023-03-14T16:25:25;1.15;;;0.40;;
10092;SDS011;5085;48.092;11.484;2023-03-14T16:27:51;0.82;;;0.50;;
10092;SDS011;5085;48.092;11.484;2023-03-14T16:30:17;0.82;;;0.40;;
10092;SDS011;5085;48.092;11.484;2023-03-14T16:32:44;1.52;;;0.47;;
10092;SDS011;5085;48.092;11.484;2023-03-14T16:35:12;2.95;;;0.50;;
10092;SDS011;5085;48.092;11.484;2023-03-14T16:37:38;0.25;;;0.20;;
10092;SDS011;5085;48.092;11.484;2023-03-14T16:40:04;0.47;;;0.10;;
10092;SDS011;5085;48.092;11.484;2023-03-14T16:42:30;0.63;;;0.28;;
10092;SDS011;5085;48.092;11.484;2023-03-14T16:44:58;0.75;;;0.30;;